Date,TemperatureHighF,TemperatureAvgF,TemperatureLowF,DewpointHighF,DewpointAvgF,DewpointLowF,HumidityHigh,HumidityAvg,HumidityLow,PressureMaxIn,PressureMinIn,WindSpeedMaxMPH,WindSpeedAvgMPH,GustSpeedMaxMPH,PrecipitationSumIn
2013-2-1,20.0,10.9,2.0,14.0,6.3,-2.0,89,82,71,0.00,40.00,14,6,25,0.00
2013-2-2,19.0,8.7,-1.0,13.0,3.9,-6.0,88,80,68,0.00,40.00,12,5,20,0.00
2013-2-3,23.0,9.7,-10.0,19.0,5.3,-14.0,88,82,74,0.00,40.00,28,7,34,0.00
2013-2-4,19.0,5.3,-13.0,13.0,-0.2,-18.0,86,78,58,0.00,40.00,13,5,16,0.00
2013-2-5,26.0,14.2,-3.0,23.0,10.6,-6.0,91,85,79,0.00,40.00,21,7,30,0.00
2013-2-6,20.0,11.9,-9.0,17.0,7.5,-14.0,89,82,65,0.00,40.00,12,8,19,0.00
2013-2-7,22.0,17.7,15.0,19.0,14.3,12.0,92,87,82,0.00,40.00,19,13,25,0.00
2013-2-8,24.0,16.7,-6.0,18.0,11.3,-11.0,90,79,65,0.00,40.00,13,8,17,0.00
2013-2-9,30.0,8.8,-17.0,20.0,3.5,-22.0,89,79,60,0.00,40.00,16,8,19,0.00
2013-2-10,38.0,30.5,7.0,37.0,27.4,4.0,96,88,77,0.00,40.00,32,14,82,0.00
2013-2-11,43.0,38.5,31.0,42.0,35.2,-99.9,99,94,86,0.00,40.00,30,13,46,0.00
2013-2-12,34.0,30.6,27.0,28.0,26.0,23.0,90,83,72,0.00,40.00,15,10,21,0.00
2013-2-13,42.0,34.6,28.0,35.0,30.1,23.0,92,84,67,0.00,40.00,19,8,29,0.00
2013-2-14,40.0,36.4,29.0,39.0,34.7,24.0,99,93,87,0.00,40.00,27,9,40,0.00
2013-2-15,28.0,21.7,14.0,25.0,16.3,8.0,88,79,71,0.00,40.00,27,12,40,0.00
2013-2-16,18.0,10.7,-2.0,9.0,4.4,-6.0,87,76,56,0.00,40.00,13,5,19,0.00
2013-2-17,26.0,10.7,-4.0,11.0,3.0,-8.0,84,72,44,0.00,40.00,10,5,16,0.00
2013-2-18,37.0,29.0,12.0,34.0,22.5,7.0,92,76,66,0.00,40.00,30,18,37,0.00
2013-2-19,40.0,31.4,16.0,38.0,-1.3,-99.9,99,73,91,0.00,40.00,69,15,175,0.00
2013-2-20,18.0,14.1,10.0,14.0,10.1,5.0,91,84,80,0.00,40.00,25,19,37,0.00
2013-2-21,23.0,14.5,8.0,17.0,9.2,3.0,89,79,68,0.00,40.00,21,7,27,0.00
2013-2-22,32.0,21.6,8.0,31.0,19.1,5.0,96,90,85,0.00,40.00,26,16,32,0.00
2013-2-23,39.0,32.0,21.0,37.0,30.2,17.0,98,93,81,0.00,40.00,13,4,17,0.00
2013-2-24,38.0,25.4,11.0,35.0,22.1,8.0,97,88,72,0.00,40.00,14,5,38,0.00
2013-2-25,38.0,33.3,28.0,33.0,30.1,27.0,94,88,75,0.00,40.00,11,4,11,0.00
2013-2-26,37.0,33.9,30.0,33.0,30.7,26.0,96,88,75,0.00,40.00,18,9,29,0.00
2013-2-27,40.0,35.9,29.0,35.0,32.2,26.0,98,86,78,0.00,40.00,20,14,26,0.00
2013-2-28,39.0,33.1,23.0,34.0,25.9,15.0,92,75,56,0.00,40.00,21,16,31,0.00